createdAt,value
2022-09-30T00:01:22.832Z,15.47
2022-09-30T00:03:49.663Z,15.39
2022-09-30T00:06:16.264Z,15.33
2022-09-30T00:08:43.266Z,15.03
2022-09-30T00:11:19.054Z,15.24
2022-09-30T00:13:48.576Z,15.16
2022-09-30T00:16:16.720Z,15.12
2022-09-30T00:18:44.756Z,14.95
2022-09-30T00:21:13.550Z,15.25
2022-09-30T00:23:40.960Z,15.26
2022-09-30T00:26:12.231Z,15.12
2022-09-30T00:28:39.872Z,14.90
2022-09-30T00:31:09.832Z,15.07
2022-09-30T00:33:36.543Z,15.00
2022-09-30T00:36:04.260Z,14.98
2022-09-30T00:38:31.483Z,14.86
2022-09-30T00:40:59.747Z,14.95
2022-09-30T00:43:51.523Z,14.91
2022-09-30T00:46:43.831Z,14.80
2022-09-30T00:49:24.810Z,14.95
2022-09-30T00:51:56.277Z,14.89
2022-09-30T00:54:28.927Z,14.73
2022-09-30T00:57:03.309Z,14.36
2022-09-30T00:59:34.972Z,14.76
2022-09-30T01:02:02.103Z,14.31
2022-09-30T01:04:32.620Z,14.93
2022-09-30T01:07:05.374Z,14.60
2022-09-30T01:09:34.481Z,14.99
2022-09-30T01:12:16.207Z,12.55
2022-09-30T01:14:43.351Z,14.77
2022-09-30T01:17:19.624Z,14.80
2022-09-30T01:20:07.823Z,14.56
2022-09-30T01:23:04.682Z,14.54
2022-09-30T01:25:58.990Z,14.64
2022-09-30T01:28:47.514Z,14.53
2022-09-30T01:31:14.114Z,14.50
2022-09-30T01:33:54.050Z,14.51
2022-09-30T01:36:28.547Z,14.46
2022-09-30T01:39:21.877Z,14.49
2022-09-30T01:41:54.712Z,14.53
2022-09-30T01:44:33.332Z,14.52
2022-09-30T01:47:12.030Z,14.56
2022-09-30T01:49:43.971Z,14.07
2022-09-30T01:52:24.451Z,14.56
2022-09-30T01:55:09.535Z,14.53
2022-09-30T01:57:40.512Z,14.41
2022-09-30T02:00:10.723Z,14.27
2022-09-30T02:02:49.178Z,14.30
2022-09-30T02:05:29.073Z,14.30
2022-09-30T02:08:00.850Z,14.21
2022-09-30T02:10:44.633Z,14.27
2022-09-30T02:13:14.406Z,14.32
2022-09-30T02:15:47.108Z,14.26
2022-09-30T02:18:20.053Z,14.07
2022-09-30T02:20:51.524Z,13.93
2022-09-30T02:23:26.580Z,14.28
2022-09-30T02:26:06.920Z,14.21
2022-09-30T02:28:39.273Z,14.24
2022-09-30T02:31:08.834Z,14.30
2022-09-30T02:33:42.001Z,13.96
2022-09-30T02:36:21.360Z,14.36
2022-09-30T02:38:55.759Z,14.25
2022-09-30T02:41:26.756Z,14.23
2022-09-30T02:43:57.806Z,14.19
2022-09-30T02:46:36.248Z,14.30
2022-09-30T02:49:12.317Z,14.29
2022-09-30T02:52:04.533Z,14.25
2022-09-30T02:54:34.347Z,14.18
2022-09-30T02:58:04.661Z,14.32
2022-09-30T03:00:31.912Z,14.18
2022-09-30T03:03:05.662Z,14.14
2022-09-30T03:05:32.314Z,13.35
2022-09-30T03:07:59.004Z,13.99
2022-09-30T03:10:25.676Z,13.59
2022-09-30T03:13:06.025Z,13.93
2022-09-30T03:16:08.205Z,14.04
2022-09-30T03:18:48.558Z,13.93
2022-09-30T03:21:43.359Z,13.77
2022-09-30T03:24:16.051Z,13.63
2022-09-30T03:27:12.158Z,13.62
2022-09-30T03:30:05.244Z,13.67
2022-09-30T03:32:52.538Z,13.75
2022-09-30T03:35:30.983Z,13.72
2022-09-30T03:38:51.688Z,13.57
2022-09-30T03:41:41.701Z,13.54
2022-09-30T03:44:26.416Z,13.50
2022-09-30T03:47:00.266Z,13.49
2022-09-30T03:49:39.999Z,13.40
2022-09-30T03:52:09.381Z,13.60
2022-09-30T03:54:54.826Z,13.32
2022-09-30T03:57:21.385Z,12.72
2022-09-30T03:59:47.964Z,13.41
2022-09-30T04:02:14.727Z,13.30
2022-09-30T04:04:42.109Z,13.22
2022-09-30T04:07:10.600Z,13.20
2022-09-30T04:09:40.850Z,12.81
2022-09-30T04:12:08.370Z,13.09
2022-09-30T04:14:35.519Z,11.29
2022-09-30T04:17:03.703Z,13.15
2022-09-30T04:19:30.581Z,13.33
2022-09-30T04:21:57.344Z,13.39
2022-09-30T04:24:25.036Z,13.51
2022-09-30T04:26:51.719Z,13.03
2022-09-30T04:29:18.366Z,13.51
2022-09-30T04:31:45.134Z,13.60
2022-09-30T04:34:11.973Z,13.29
2022-09-30T04:36:39.128Z,11.73
2022-09-30T04:39:05.874Z,13.70
2022-09-30T04:41:34.162Z,13.79
2022-09-30T04:44:06.099Z,13.91
2022-09-30T04:46:36.751Z,14.01
2022-09-30T04:49:08.719Z,14.10
2022-09-30T04:51:36.814Z,14.08
2022-09-30T04:54:03.617Z,14.35
2022-09-30T04:56:30.355Z,13.93
2022-09-30T04:58:57.464Z,14.53
2022-09-30T05:01:24.254Z,14.69
2022-09-30T05:03:50.895Z,14.52
2022-09-30T05:06:17.588Z,14.69
2022-09-30T05:08:46.047Z,14.70
2022-09-30T05:11:18.885Z,14.87
2022-09-30T05:13:46.873Z,15.03
2022-09-30T05:16:15.229Z,14.90
2022-09-30T05:18:45.716Z,14.89
2022-09-30T05:21:14.491Z,15.05
2022-09-30T05:23:41.171Z,14.86
2022-09-30T05:26:11.949Z,14.97
2022-09-30T05:28:39.717Z,15.42
2022-09-30T05:31:06.549Z,15.71
2022-09-30T05:33:34.920Z,15.32
2022-09-30T05:36:03.843Z,15.83
2022-09-30T05:38:30.877Z,15.16
2022-09-30T05:40:57.692Z,16.10
2022-09-30T05:43:24.335Z,15.49
2022-09-30T05:45:57.783Z,15.82
2022-09-30T05:48:25.644Z,16.44
2022-09-30T05:50:57.765Z,16.63
2022-09-30T05:53:24.514Z,16.51
2022-09-30T05:55:51.767Z,16.84
2022-09-30T05:58:19.407Z,16.00
2022-09-30T06:00:47.853Z,17.14
2022-09-30T06:03:15.995Z,17.50
2022-09-30T06:05:43.119Z,17.24
2022-09-30T06:08:10.407Z,17.86
2022-09-30T06:10:40.049Z,17.79
2022-09-30T06:13:07.476Z,17.88
2022-09-30T06:15:34.199Z,18.12
2022-09-30T06:18:00.815Z,17.14
2022-09-30T06:20:27.477Z,17.99
2022-09-30T06:22:54.709Z,17.77
2022-09-30T06:25:22.341Z,18.02
2022-09-30T06:27:48.982Z,18.87
2022-09-30T06:30:15.688Z,16.34
2022-09-30T06:32:42.645Z,18.89
2022-09-30T06:35:10.500Z,18.28
2022-09-30T06:37:37.930Z,19.46
2022-09-30T06:40:06.035Z,17.64
2022-09-30T06:42:32.921Z,19.41
2022-09-30T06:44:59.846Z,19.94
2022-09-30T06:47:26.653Z,19.95
2022-09-30T06:49:58.518Z,19.48
2022-09-30T06:52:26.444Z,19.75
2022-09-30T06:54:56.785Z,18.84
2022-09-30T06:57:27.765Z,19.61
2022-09-30T06:59:57.139Z,20.12
2022-09-30T07:02:23.781Z,20.36
2022-09-30T07:04:50.428Z,20.13
2022-09-30T07:07:17.013Z,20.77
2022-09-30T07:09:43.687Z,20.95
2022-09-30T07:12:10.413Z,20.77
2022-09-30T07:14:37.302Z,20.62
2022-09-30T07:17:05.940Z,20.43
2022-09-30T07:19:34.594Z,20.90
2022-09-30T07:22:22.136Z,20.47
2022-09-30T07:24:49.111Z,20.48
2022-09-30T07:27:16.130Z,20.58
2022-09-30T07:30:07.677Z,21.57
2022-09-30T07:32:30.867Z,21.34
2022-09-30T07:34:57.537Z,20.63
2022-09-30T07:37:26.355Z,21.79
2022-09-30T07:39:53.501Z,21.91
2022-09-30T07:42:22.655Z,21.90
2022-09-30T07:44:52.253Z,22.25
2022-09-30T07:47:19.855Z,22.09
2022-09-30T07:49:46.656Z,21.87
2022-09-30T07:52:14.160Z,22.81
2022-09-30T07:54:45.346Z,23.04
2022-09-30T07:57:14.953Z,22.49
2022-09-30T07:59:42.318Z,22.66
2022-09-30T08:02:16.310Z,21.68
2022-09-30T08:04:44.543Z,23.62
2022-09-30T08:07:13.547Z,23.03
2022-09-30T08:09:40.198Z,23.37
2022-09-30T08:12:06.900Z,23.44
2022-09-30T08:14:33.606Z,23.43
2022-09-30T08:17:00.962Z,23.27
2022-09-30T08:19:29.555Z,23.42
2022-09-30T08:21:56.868Z,23.52
2022-09-30T08:24:24.337Z,24.03
2022-09-30T08:26:52.642Z,24.30
2022-09-30T08:29:35.649Z,24.60
2022-09-30T08:32:06.265Z,24.77
2022-09-30T08:34:35.655Z,24.75
2022-09-30T08:37:07.821Z,24.90
2022-09-30T08:39:35.807Z,24.54
2022-09-30T08:42:32.460Z,25.10
2022-09-30T08:45:40.492Z,25.34
2022-09-30T08:48:19.381Z,25.49
2022-09-30T08:50:56.797Z,25.31
2022-09-30T08:53:31.157Z,24.89
2022-09-30T08:56:02.496Z,25.53
2022-09-30T08:58:33.290Z,25.69
2022-09-30T09:01:26.440Z,25.55
2022-09-30T09:03:54.047Z,25.43
2022-09-30T09:06:27.298Z,25.26
2022-09-30T09:09:10.147Z,25.61
2022-09-30T09:12:15.105Z,25.75
2022-09-30T09:15:14.260Z,25.84
2022-09-30T09:18:22.005Z,25.52
2022-09-30T09:21:09.576Z,25.44
2022-09-30T09:23:36.519Z,25.60
2022-09-30T09:26:05.208Z,26.13
2022-09-30T09:28:40.951Z,25.89
2022-09-30T09:31:14.651Z,26.41
2022-09-30T09:33:41.497Z,26.39
2022-09-30T09:36:32.337Z,26.88
2022-09-30T09:39:10.999Z,26.92
2022-09-30T09:41:49.772Z,27.01
2022-09-30T09:44:32.691Z,27.19
2022-09-30T09:47:13.944Z,27.20
2022-09-30T09:49:43.956Z,27.26
2022-09-30T09:52:13.375Z,27.53
2022-09-30T09:54:44.191Z,27.65
2022-09-30T09:57:16.852Z,27.82
2022-09-30T10:00:32.953Z,27.79
2022-09-30T10:03:25.141Z,27.79
2022-09-30T10:06:04.219Z,27.87
2022-09-30T10:08:33.839Z,28.05
2022-09-30T10:11:03.552Z,28.07
2022-09-30T10:13:43.024Z,27.71
2022-09-30T10:16:25.855Z,27.79
2022-09-30T10:18:52.515Z,27.83
2022-09-30T10:21:24.818Z,28.11
2022-09-30T10:23:51.445Z,28.28
2022-09-30T10:26:24.743Z,28.07
2022-09-30T10:28:54.088Z,28.16
2022-09-30T10:31:37.277Z,28.17
2022-09-30T10:34:36.187Z,28.33
2022-09-30T10:37:10.080Z,28.50
2022-09-30T10:39:38.811Z,28.29
2022-09-30T10:42:08.510Z,27.98
2022-09-30T10:44:57.424Z,27.67
2022-09-30T10:47:26.395Z,27.20
2022-09-30T10:50:17.259Z,27.48
2022-09-30T10:52:58.227Z,27.69
2022-09-30T10:55:25.007Z,27.71
2022-09-30T10:57:54.078Z,27.85
2022-09-30T11:00:23.843Z,28.10
2022-09-30T11:03:18.945Z,28.19
2022-09-30T11:05:49.808Z,28.30
2022-09-30T11:08:27.993Z,28.35
2022-09-30T11:11:14.266Z,28.36
2022-09-30T11:13:50.373Z,28.47
2022-09-30T11:16:35.118Z,28.35
2022-09-30T11:19:07.789Z,28.27
2022-09-30T11:21:49.308Z,28.27
2022-09-30T11:24:37.653Z,28.35
2022-09-30T11:27:38.326Z,28.23
2022-09-30T11:30:18.132Z,28.22
2022-09-30T11:33:09.323Z,28.36
2022-09-30T11:36:06.352Z,28.22
2022-09-30T11:38:51.651Z,28.30
2022-09-30T11:41:24.330Z,28.44
2022-09-30T11:44:06.088Z,28.56
2022-09-30T11:47:09.541Z,28.65
2022-09-30T11:49:51.427Z,28.66
2022-09-30T11:53:05.480Z,28.62
2022-09-30T11:55:45.422Z,28.50
2022-09-30T12:01:28.392Z,28.55
2022-09-30T12:04:19.627Z,28.38
2022-09-30T12:07:09.560Z,28.63
2022-09-30T12:09:44.508Z,28.59
2022-09-30T12:12:16.749Z,28.58
2022-09-30T12:14:49.745Z,28.76
2022-09-30T12:17:37.761Z,28.67
2022-09-30T12:20:26.155Z,28.56
2022-09-30T12:22:59.024Z,28.62
2022-09-30T12:25:31.895Z,28.76
2022-09-30T12:28:35.917Z,28.90
2022-09-30T12:31:20.974Z,27.55
2022-09-30T12:33:48.360Z,28.70
2022-09-30T12:36:39.984Z,28.70
2022-09-30T12:39:48.103Z,28.80
2022-09-30T12:42:52.849Z,28.75
2022-09-30T12:45:34.585Z,28.80
2022-09-30T12:48:08.288Z,28.83
2022-09-30T12:50:45.990Z,28.97
2022-09-30T12:53:28.696Z,28.29
2022-09-30T12:56:13.433Z,28.67
2022-09-30T12:58:51.950Z,28.87
2022-09-30T13:01:22.601Z,28.89
2022-09-30T13:03:59.971Z,28.88
2022-09-30T13:06:47.804Z,28.76
2022-09-30T13:09:17.164Z,28.82
2022-09-30T13:11:56.786Z,28.58
2022-09-30T13:14:45.688Z,28.84
2022-09-30T13:17:12.354Z,28.91
2022-09-30T13:19:46.352Z,28.93
2022-09-30T13:22:18.975Z,29.10
2022-09-30T13:24:57.953Z,29.17
2022-09-30T13:27:42.008Z,29.09
2022-09-30T13:30:14.698Z,28.91
2022-09-30T13:32:47.822Z,28.43
2022-09-30T13:35:34.663Z,28.73
2022-09-30T13:38:24.496Z,28.64
2022-09-30T13:41:08.244Z,28.55
2022-09-30T13:44:07.187Z,28.61
2022-09-30T13:46:54.536Z,28.64
2022-09-30T13:49:46.845Z,28.53
2022-09-30T13:52:23.630Z,28.60
2022-09-30T13:54:52.246Z,29.76
2022-09-30T13:57:26.311Z,30.32
2022-09-30T14:00:13.111Z,29.92
2022-09-30T14:02:54.896Z,29.17
2022-09-30T14:05:35.254Z,28.81
2022-09-30T14:08:26.652Z,28.64
2022-09-30T14:11:12.047Z,28.49
2022-09-30T14:14:10.238Z,28.35
2022-09-30T14:16:42.568Z,28.25
2022-09-30T14:19:43.009Z,28.13
2022-09-30T14:22:11.457Z,28.06
2022-09-30T14:24:40.325Z,27.99
2022-09-30T14:27:19.478Z,28.04
2022-09-30T14:30:01.179Z,28.06
2022-09-30T14:32:32.722Z,28.04
2022-09-30T14:38:08.561Z,27.90
2022-09-30T14:40:41.132Z,27.88
2022-09-30T14:43:18.298Z,27.75
2022-09-30T14:45:51.361Z,27.81
2022-09-30T14:48:23.399Z,27.73
2022-09-30T14:51:00.424Z,27.27
2022-09-30T14:53:32.255Z,27.39
2022-09-30T14:56:00.099Z,27.67
2022-09-30T14:58:39.917Z,27.34
2022-09-30T15:01:15.376Z,27.23
2022-09-30T15:03:47.856Z,27.54
2022-09-30T15:06:20.221Z,27.29
2022-09-30T15:08:48.809Z,27.38
2022-09-30T15:11:26.057Z,27.44
2022-09-30T15:14:00.140Z,27.13
2022-09-30T15:16:29.791Z,27.29
2022-09-30T15:18:57.156Z,27.23
2022-09-30T15:21:25.955Z,27.17
2022-09-30T15:23:57.348Z,27.06
2022-09-30T15:26:26.861Z,27.00
2022-09-30T15:28:54.809Z,26.85
2022-09-30T15:31:26.059Z,26.44
2022-09-30T15:34:19.193Z,26.71
2022-09-30T15:36:57.693Z,26.72
2022-09-30T15:39:50.861Z,26.58
2022-09-30T15:42:43.822Z,26.35
2022-09-30T15:45:17.165Z,26.14
2022-09-30T15:47:56.320Z,25.94
2022-09-30T15:50:42.936Z,25.73
2022-09-30T15:53:31.343Z,25.29
2022-09-30T15:55:59.665Z,25.36
2022-09-30T15:58:26.596Z,25.18
2022-09-30T16:01:09.199Z,24.87
2022-09-30T16:03:36.522Z,24.77
2022-09-30T16:06:12.281Z,24.54
2022-09-30T16:08:44.808Z,24.48
2022-09-30T16:11:21.921Z,24.03
2022-09-30T16:13:49.369Z,24.00
2022-09-30T16:16:23.140Z,23.76
2022-09-30T16:18:51.976Z,23.69
2022-09-30T16:21:44.307Z,23.39
2022-09-30T16:24:29.017Z,23.24
2022-09-30T16:27:15.701Z,23.25
2022-09-30T16:29:42.245Z,22.49
2022-09-30T16:32:10.179Z,22.61
2022-09-30T16:34:38.068Z,22.68
2022-09-30T16:37:11.683Z,22.59
2022-09-30T16:39:38.566Z,22.41
2022-09-30T16:42:05.173Z,22.43
2022-09-30T16:44:35.515Z,21.67
2022-09-30T16:47:02.612Z,21.99
2022-09-30T16:49:29.176Z,22.07
2022-09-30T16:51:56.272Z,21.94
2022-09-30T16:54:23.094Z,21.91
2022-09-30T16:56:49.724Z,21.51
2022-09-30T16:59:20.285Z,21.82
2022-09-30T17:01:46.964Z,21.66
2022-09-30T17:04:16.570Z,21.59
2022-09-30T17:06:44.304Z,21.55
2022-09-30T17:09:10.866Z,20.85
2022-09-30T17:11:38.196Z,21.40
2022-09-30T17:14:05.658Z,21.41
2022-09-30T17:16:33.898Z,20.96
2022-09-30T17:19:00.996Z,21.10
2022-09-30T17:21:36.620Z,21.02
2022-09-30T17:24:08.750Z,20.67
2022-09-30T17:26:38.212Z,20.98
2022-09-30T17:29:14.885Z,20.93
2022-09-30T17:31:53.866Z,20.95
2022-09-30T17:34:22.984Z,20.63
2022-09-30T17:36:49.922Z,20.29
2022-09-30T17:39:16.978Z,20.49
2022-09-30T17:42:02.080Z,20.39
2022-09-30T17:44:28.688Z,20.18
2022-09-30T17:47:00.650Z,20.13
2022-09-30T17:49:32.158Z,20.01
2022-09-30T17:51:59.115Z,20.00
2022-09-30T17:54:26.974Z,19.57
2022-09-30T17:56:54.039Z,19.71
2022-09-30T17:59:21.584Z,19.50
2022-09-30T18:01:50.630Z,19.57
2022-09-30T18:04:22.631Z,19.24
2022-09-30T18:06:49.292Z,19.54
2022-09-30T18:09:15.842Z,19.43
2022-09-30T18:11:43.860Z,19.48
2022-09-30T18:14:11.936Z,19.32
2022-09-30T18:16:39.117Z,19.23
2022-09-30T18:19:08.116Z,19.09
2022-09-30T18:21:36.569Z,19.09
2022-09-30T18:24:04.715Z,18.91
2022-09-30T18:26:33.631Z,18.96
2022-09-30T18:29:03.315Z,18.57
2022-09-30T18:31:37.473Z,18.83
2022-09-30T18:34:05.113Z,18.73
2022-09-30T18:36:37.295Z,18.69
2022-09-30T18:39:05.134Z,18.60
2022-09-30T18:41:34.549Z,18.65
2022-09-30T18:44:02.980Z,18.66
2022-09-30T18:46:31.473Z,18.59
2022-09-30T18:48:58.232Z,18.54
2022-09-30T18:51:25.282Z,18.54
2022-09-30T18:53:57.754Z,18.09
2022-09-30T18:56:32.206Z,18.43
2022-09-30T19:01:34.377Z,17.62
2022-09-30T19:04:04.520Z,18.07
2022-09-30T19:06:31.397Z,18.39
2022-09-30T19:08:58.007Z,18.30
2022-09-30T19:11:25.574Z,18.02
2022-09-30T19:13:53.025Z,18.17
2022-09-30T19:16:19.876Z,18.08
2022-09-30T19:18:47.020Z,18.30
2022-09-30T19:21:20.305Z,18.23
2022-09-30T19:23:47.463Z,17.93
2022-09-30T19:26:15.744Z,17.95
2022-09-30T19:28:42.930Z,17.38
2022-09-30T19:31:12.456Z,17.70
2022-09-30T19:33:51.169Z,17.66
2022-09-30T19:36:27.082Z,17.62
2022-09-30T19:39:09.220Z,17.59
2022-09-30T19:41:37.362Z,17.90
2022-09-30T19:44:04.475Z,17.81
2022-09-30T19:46:31.024Z,17.60
2022-09-30T19:49:01.390Z,17.70
2022-09-30T19:51:31.081Z,17.71
2022-09-30T19:54:05.873Z,17.70
2022-09-30T19:56:36.633Z,17.62
2022-09-30T19:59:04.467Z,17.72
2022-09-30T20:01:34.564Z,17.59
2022-09-30T20:04:04.777Z,17.75
2022-09-30T20:06:32.653Z,17.84
2022-09-30T20:09:00.372Z,17.74
2022-09-30T20:11:29.923Z,17.81
2022-09-30T20:14:23.555Z,17.76
2022-09-30T20:16:50.529Z,17.64
2022-09-30T20:19:18.498Z,17.74
2022-09-30T20:21:46.809Z,17.60
2022-09-30T20:24:15.505Z,17.52
2022-09-30T20:26:43.551Z,17.44
2022-09-30T20:29:10.834Z,17.44
2022-09-30T20:31:42.383Z,17.32
2022-09-30T20:34:12.085Z,17.22
2022-09-30T20:36:40.316Z,17.11
2022-09-30T20:39:07.822Z,16.66
2022-09-30T20:41:39.364Z,16.90
2022-09-30T20:44:08.976Z,17.17
2022-09-30T20:46:35.623Z,16.49
2022-09-30T20:49:02.526Z,16.89
2022-09-30T20:51:31.100Z,16.93
2022-09-30T20:53:59.976Z,17.06
2022-09-30T20:56:39.281Z,17.08
2022-09-30T20:59:16.143Z,17.16
2022-09-30T21:01:42.748Z,17.18
2022-09-30T21:04:09.425Z,17.16
2022-09-30T21:06:36.093Z,17.10
2022-09-30T21:09:03.499Z,17.14
2022-09-30T21:11:30.416Z,17.17
2022-09-30T21:13:57.555Z,16.84
2022-09-30T21:16:25.442Z,17.14
2022-09-30T21:18:53.236Z,16.98
2022-09-30T21:21:21.638Z,16.84
2022-09-30T21:23:48.787Z,16.56
2022-09-30T21:26:18.625Z,16.66
2022-09-30T21:28:49.664Z,16.58
2022-09-30T21:31:20.376Z,16.86
2022-09-30T21:33:56.371Z,16.44
2022-09-30T21:36:23.269Z,16.35
2022-09-30T21:38:50.587Z,16.22
2022-09-30T21:41:18.426Z,16.61
2022-09-30T21:43:45.394Z,16.67
2022-09-30T21:46:14.693Z,16.76
2022-09-30T21:48:42.421Z,16.65
2022-09-30T21:51:10.120Z,16.58
2022-09-30T21:53:38.989Z,16.57
2022-09-30T21:56:06.575Z,16.58
2022-09-30T21:58:34.073Z,16.50
2022-09-30T22:01:04.075Z,16.32
2022-09-30T22:03:36.074Z,16.05
2022-09-30T22:06:06.760Z,16.28
2022-09-30T22:08:36.155Z,15.75
2022-09-30T22:11:06.910Z,16.24
2022-09-30T22:13:34.161Z,16.19
2022-09-30T22:16:05.675Z,15.99
2022-09-30T22:18:33.029Z,16.29
2022-09-30T22:21:17.775Z,16.26
2022-09-30T22:23:47.690Z,16.31
2022-09-30T22:26:17.765Z,16.34
2022-09-30T22:28:53.083Z,16.28
2022-09-30T22:31:22.547Z,16.31
2022-09-30T22:34:10.073Z,16.23
2022-09-30T22:36:55.586Z,16.13
2022-09-30T22:39:23.149Z,16.07
2022-09-30T22:41:54.237Z,15.80
2022-09-30T22:44:23.720Z,15.68
2022-09-30T22:46:51.118Z,15.80
2022-09-30T22:49:17.790Z,16.05
2022-09-30T22:51:44.304Z,16.01
2022-09-30T22:54:12.302Z,15.96
2022-09-30T22:56:38.892Z,15.74
2022-09-30T22:59:06.496Z,15.93
2022-09-30T23:01:33.221Z,16.10
2022-09-30T23:04:00.524Z,15.95
2022-09-30T23:06:27.169Z,15.92
2022-09-30T23:08:54.605Z,15.82
2022-09-30T23:11:23.241Z,15.78
2022-09-30T23:13:52.572Z,15.72
2022-09-30T23:16:21.144Z,15.63
2022-09-30T23:18:47.979Z,15.80
2022-09-30T23:21:17.872Z,15.80
2022-09-30T23:23:46.328Z,15.81
2022-09-30T23:26:18.363Z,15.76
2022-09-30T23:28:45.438Z,15.71
2022-09-30T23:31:14.879Z,15.72
2022-09-30T23:33:50.329Z,15.30
2022-09-30T23:36:19.468Z,15.64
2022-09-30T23:38:46.838Z,15.66
2022-09-30T23:41:14.127Z,15.53
2022-09-30T23:43:48.190Z,15.28
2022-09-30T23:46:16.730Z,15.52
2022-09-30T23:48:44.797Z,15.18
2022-09-30T23:51:12.962Z,15.39
2022-09-30T23:53:40.036Z,15.40
2022-09-30T23:56:10.279Z,15.48
2022-09-30T23:58:37.125Z,15.52
